createdAt,value
2024-01-17T00:00:05.561Z,92.33
2024-01-17T00:00:13.915Z,92.33
2024-01-17T00:00:24.789Z,92.23
2024-01-17T00:00:35.717Z,92.33
2024-01-17T00:00:46.661Z,92.33
2024-01-17T00:00:57.595Z,92.33
2024-01-17T00:01:08.472Z,92.33
2024-01-17T00:01:19.343Z,92.23
2024-01-17T00:01:30.237Z,92.33
2024-01-17T00:01:41.110Z,92.23
2024-01-17T00:01:52.018Z,92.33
2024-01-17T00:02:02.893Z,92.23
2024-01-17T00:02:13.775Z,92.23
2024-01-17T00:02:24.673Z,92.23
2024-01-17T00:02:35.664Z,92.33
2024-01-17T00:02:46.591Z,92.23
2024-01-17T00:02:57.561Z,92.23
2024-01-17T00:03:08.565Z,92.23
2024-01-17T00:03:19.085Z,92.23
2024-01-17T00:03:29.977Z,92.23
2024-01-17T00:03:40.859Z,92.12
2024-01-17T00:03:51.747Z,92.12
2024-01-17T00:04:02.638Z,92.12
2024-01-17T00:04:13.526Z,92.12
2024-01-17T00:04:24.426Z,92.12
2024-01-17T00:04:35.289Z,92.12
2024-01-17T00:04:46.175Z,92.12
2024-01-17T00:04:57.074Z,92.12
2024-01-17T00:05:07.975Z,92.12
2024-01-17T00:05:18.841Z,92.23
2024-01-17T00:05:29.741Z,92.23
2024-01-17T00:05:40.796Z,92.23
2024-01-17T00:05:51.697Z,92.23
2024-01-17T00:06:02.601Z,92.33
2024-01-17T00:06:13.465Z,92.33
2024-01-17T00:06:24.357Z,92.33
2024-01-17T00:06:35.287Z,92.33
2024-01-17T00:06:46.192Z,92.33
2024-01-17T00:06:57.157Z,92.33
2024-01-17T00:07:07.603Z,92.33
2024-01-17T00:07:18.555Z,92.33
2024-01-17T00:07:29.509Z,92.33
2024-01-17T00:07:40.495Z,92.44
2024-01-17T00:07:51.417Z,92.44
2024-01-17T00:08:02.368Z,92.44
2024-01-17T00:08:13.382Z,92.44
2024-01-17T00:08:24.260Z,92.44
2024-01-17T00:08:35.153Z,92.44
2024-01-17T00:08:46.055Z,92.44
2024-01-17T00:08:56.940Z,92.44
2024-01-17T00:09:07.949Z,92.44
2024-01-17T00:09:18.293Z,92.44
2024-01-17T00:09:29.189Z,92.44
2024-01-17T00:09:40.072Z,92.44
2024-01-17T00:09:50.953Z,92.44
2024-01-17T00:10:01.857Z,92.44
2024-01-17T00:10:12.738Z,92.44
2024-01-17T00:10:23.633Z,92.44
2024-01-17T00:10:34.523Z,92.44
2024-01-17T00:10:45.421Z,92.44
2024-01-17T00:10:56.289Z,92.44
2024-01-17T00:11:07.181Z,92.44
2024-01-17T00:11:18.059Z,92.44
2024-01-17T00:11:29.009Z,92.44
2024-01-17T00:11:39.890Z,92.44
2024-01-17T00:11:52.188Z,92.33
2024-01-17T00:12:01.646Z,92.33
2024-01-17T00:12:12.549Z,92.33
2024-01-17T00:12:23.394Z,92.33
2024-01-17T00:12:34.272Z,92.33
2024-01-17T00:12:45.189Z,92.33
2024-01-17T00:12:56.085Z,92.33
2024-01-17T00:13:06.994Z,92.33
2024-01-17T00:13:17.911Z,92.33
2024-01-17T00:13:28.788Z,92.33
2024-01-17T00:13:39.658Z,92.33
2024-01-17T00:13:50.543Z,92.33
2024-01-17T00:14:01.429Z,92.33
2024-01-17T00:14:12.317Z,92.33
2024-01-17T00:14:23.237Z,92.33
2024-01-17T00:14:34.128Z,92.33
2024-01-17T00:14:45.005Z,92.33
2024-01-17T00:14:55.954Z,92.33
2024-01-17T00:15:06.928Z,92.33
2024-01-17T00:15:17.781Z,92.33
2024-01-17T00:15:28.656Z,92.23
2024-01-17T00:15:39.545Z,92.23
2024-01-17T00:15:50.426Z,92.23
2024-01-17T00:16:01.324Z,92.23
2024-01-17T00:16:12.220Z,92.23
2024-01-17T00:16:23.100Z,92.23
2024-01-17T00:16:33.976Z,92.23
2024-01-17T00:16:44.881Z,92.12
2024-01-17T00:16:55.770Z,92.12
2024-01-17T00:17:06.664Z,92.12
2024-01-17T00:17:17.540Z,92.12
2024-01-17T00:17:28.630Z,92.12
2024-01-17T00:17:39.137Z,92.23
2024-01-17T00:17:50.130Z,92.23
2024-01-17T00:18:00.718Z,92.23
2024-01-17T00:18:11.285Z,92.23
2024-01-17T00:18:22.331Z,92.27
2024-01-17T00:18:32.912Z,92.33
2024-01-17T00:18:43.464Z,92.38
2024-01-17T00:18:54.552Z,92.38
2024-01-17T00:19:05.112Z,92.33
2024-01-17T00:19:15.682Z,92.44
2024-01-17T00:19:26.087Z,92.44
2024-01-17T00:19:37.028Z,92.44
2024-01-17T00:19:48.062Z,92.44
2024-01-17T00:19:58.708Z,92.44
2024-01-17T00:20:09.088Z,92.58
2024-01-17T00:20:19.969Z,92.54
2024-01-17T00:20:30.909Z,92.54
2024-01-17T00:20:41.834Z,92.54
2024-01-17T00:20:52.822Z,92.54
2024-01-17T00:21:03.703Z,92.58
2024-01-17T00:21:14.568Z,92.58
2024-01-17T00:21:25.443Z,92.54
2024-01-17T00:21:36.352Z,92.44
2024-01-17T00:21:47.236Z,92.48
2024-01-17T00:21:58.131Z,92.58
2024-01-17T00:22:08.996Z,92.58
2024-01-17T00:22:19.882Z,92.58
2024-01-17T00:22:30.775Z,92.58
2024-01-17T00:22:41.646Z,92.58
2024-01-17T00:22:52.526Z,92.58
2024-01-17T00:23:03.434Z,92.58
2024-01-17T00:23:14.302Z,92.58
2024-01-17T00:23:25.209Z,92.58
2024-01-17T00:23:36.120Z,92.58
2024-01-17T00:23:47.036Z,92.69
2024-01-17T00:23:57.964Z,92.69
2024-01-17T00:24:08.843Z,92.80
2024-01-17T00:24:19.703Z,92.80
2024-01-17T00:24:30.596Z,92.80
2024-01-17T00:24:41.483Z,92.90
2024-01-17T00:24:52.377Z,92.90
2024-01-17T00:25:03.273Z,92.90
2024-01-17T00:25:14.163Z,92.90
2024-01-17T00:25:25.034Z,92.90
2024-01-17T00:25:35.929Z,93.01
2024-01-17T00:25:46.815Z,93.01
2024-01-17T00:25:57.702Z,93.01
2024-01-17T00:26:08.587Z,93.01
2024-01-17T00:26:19.497Z,93.01
2024-01-17T00:26:30.388Z,93.01
2024-01-17T00:26:41.327Z,93.01
2024-01-17T00:26:52.188Z,93.11
2024-01-17T00:27:03.167Z,93.11
2024-01-17T00:27:14.034Z,93.01
2024-01-17T00:27:24.918Z,93.11
2024-01-17T00:27:35.802Z,93.11
2024-01-17T00:27:46.665Z,93.11
2024-01-17T00:27:57.545Z,93.11
2024-01-17T00:28:08.431Z,93.11
2024-01-17T00:28:19.323Z,93.11
2024-01-17T00:28:30.207Z,93.11
2024-01-17T00:28:41.098Z,93.01
2024-01-17T00:28:52.000Z,93.01
2024-01-17T00:29:02.851Z,93.01
2024-01-17T00:29:13.743Z,93.01
2024-01-17T00:29:24.684Z,93.01
2024-01-17T00:29:35.538Z,93.01
2024-01-17T00:29:46.534Z,93.01
2024-01-17T00:29:57.000Z,93.01
2024-01-17T00:30:08.090Z,93.01
2024-01-17T00:30:18.731Z,93.01
2024-01-17T00:30:29.136Z,93.11
2024-01-17T00:30:40.039Z,93.01
2024-01-17T00:30:50.927Z,93.11
2024-01-17T00:31:01.818Z,93.11
2024-01-17T00:31:12.724Z,93.11
2024-01-17T00:31:23.617Z,93.11
2024-01-17T00:31:34.487Z,93.01
2024-01-17T00:31:45.393Z,93.11
2024-01-17T00:31:56.280Z,93.11
2024-01-17T00:32:07.157Z,93.11
2024-01-17T00:32:18.038Z,93.11
2024-01-17T00:32:28.977Z,93.11
2024-01-17T00:32:40.005Z,93.11
2024-01-17T00:32:50.461Z,93.11
2024-01-17T00:33:01.392Z,93.11
2024-01-17T00:33:12.398Z,93.11
2024-01-17T00:33:22.964Z,93.11
2024-01-17T00:33:33.549Z,93.11
2024-01-17T00:33:44.124Z,93.11
2024-01-17T00:33:54.794Z,93.11
2024-01-17T00:34:05.416Z,93.11
2024-01-17T00:34:15.999Z,93.11
2024-01-17T00:34:26.551Z,93.11
2024-01-17T00:34:40.057Z,93.11
2024-01-17T00:34:48.445Z,93.11
2024-01-17T00:34:59.418Z,93.11
2024-01-17T00:35:10.346Z,93.11
2024-01-17T00:35:21.218Z,93.11
2024-01-17T00:35:32.111Z,93.11
2024-01-17T00:35:43.047Z,93.11
2024-01-17T00:35:53.937Z,93.11
2024-01-17T00:36:04.922Z,93.11
2024-01-17T00:36:15.330Z,93.11
2024-01-17T00:36:26.178Z,93.11
2024-01-17T00:36:37.043Z,93.11
2024-01-17T00:36:47.935Z,93.01
2024-01-17T00:36:58.829Z,93.01
2024-01-17T00:37:09.729Z,93.01
2024-01-17T00:37:20.627Z,92.90
2024-01-17T00:37:31.505Z,92.90
2024-01-17T00:37:42.392Z,92.90
2024-01-17T00:37:53.319Z,92.90
2024-01-17T00:38:04.195Z,92.80
2024-01-17T00:38:15.114Z,92.80
2024-01-17T00:38:25.993Z,92.80
2024-01-17T00:38:36.877Z,92.80
2024-01-17T00:38:47.819Z,92.80
2024-01-17T00:38:58.766Z,92.80
2024-01-17T00:39:09.218Z,92.80
2024-01-17T00:39:20.110Z,92.80
2024-01-17T00:39:30.962Z,92.80
2024-01-17T00:39:41.866Z,92.80
2024-01-17T00:39:52.756Z,92.69
2024-01-17T00:40:03.643Z,92.69
2024-01-17T00:40:14.521Z,92.69
2024-01-17T00:40:25.402Z,92.69
2024-01-17T00:40:36.289Z,92.69
2024-01-17T00:40:47.168Z,92.69
2024-01-17T00:40:58.065Z,92.69
2024-01-17T00:41:08.970Z,92.69
2024-01-17T00:41:19.808Z,92.69
2024-01-17T00:41:31.031Z,92.58
2024-01-17T00:41:41.422Z,92.58
2024-01-17T00:41:52.314Z,92.58
2024-01-17T00:42:03.272Z,92.58
2024-01-17T00:42:14.127Z,92.58
2024-01-17T00:42:25.057Z,92.58
2024-01-17T00:42:35.895Z,92.58
2024-01-17T00:42:46.775Z,92.48
2024-01-17T00:42:57.685Z,92.48
2024-01-17T00:43:08.540Z,92.48
2024-01-17T00:43:19.429Z,92.48
2024-01-17T00:43:30.332Z,92.48
2024-01-17T00:43:41.207Z,92.48
2024-01-17T00:43:52.093Z,92.48
2024-01-17T00:44:02.966Z,92.38
2024-01-17T00:44:13.853Z,92.38
2024-01-17T00:44:24.798Z,92.38
2024-01-17T00:44:35.647Z,92.38
2024-01-17T00:44:46.581Z,92.38
2024-01-17T00:44:57.511Z,92.38
2024-01-17T00:45:08.487Z,92.38
2024-01-17T00:45:18.861Z,92.38
2024-01-17T00:45:29.766Z,92.38
2024-01-17T00:45:40.637Z,92.38
2024-01-17T00:45:51.524Z,92.38
2024-01-17T00:46:02.406Z,92.38
2024-01-17T00:46:13.273Z,92.38
2024-01-17T00:46:24.162Z,92.38
2024-01-17T00:46:35.057Z,92.38
2024-01-17T00:46:45.951Z,92.38
2024-01-17T00:46:56.836Z,92.27
2024-01-17T00:47:07.726Z,92.27
2024-01-17T00:47:18.601Z,92.27
2024-01-17T00:47:29.570Z,92.27
2024-01-17T00:47:40.562Z,92.27
2024-01-17T00:47:51.024Z,92.27
2024-01-17T00:48:02.012Z,92.27
2024-01-17T00:48:12.494Z,92.27
2024-01-17T00:48:23.493Z,92.27
2024-01-17T00:48:34.081Z,92.27
2024-01-17T00:48:44.632Z,92.27
2024-01-17T00:48:55.615Z,92.27
2024-01-17T00:49:06.526Z,92.38
2024-01-17T00:49:17.386Z,92.38
2024-01-17T00:49:28.286Z,92.38
2024-01-17T00:49:39.186Z,92.38
2024-01-17T00:49:50.263Z,92.38
2024-01-17T00:50:00.614Z,92.38
2024-01-17T00:50:11.491Z,92.38
2024-01-17T00:50:22.407Z,92.38
2024-01-17T00:50:33.319Z,92.38
2024-01-17T00:50:44.184Z,92.38
2024-01-17T00:50:55.057Z,92.38
2024-01-17T00:51:05.962Z,92.38
2024-01-17T00:51:16.963Z,92.38
2024-01-17T00:51:27.805Z,92.38
2024-01-17T00:51:38.702Z,92.38
2024-01-17T00:51:49.566Z,92.48
2024-01-17T00:52:00.521Z,92.48
2024-01-17T00:52:11.396Z,92.48
2024-01-17T00:52:22.284Z,92.48
2024-01-17T00:52:33.257Z,92.48
2024-01-17T00:52:44.184Z,92.48
2024-01-17T00:52:55.046Z,92.48
2024-01-17T00:53:05.925Z,92.48
2024-01-17T00:53:16.797Z,92.48
2024-01-17T00:53:27.689Z,92.48
2024-01-17T00:53:38.632Z,92.48
2024-01-17T00:53:49.502Z,92.48
2024-01-17T00:54:00.499Z,92.48
2024-01-17T00:54:10.942Z,92.38
2024-01-17T00:54:21.790Z,92.38
2024-01-17T00:54:32.667Z,92.38
2024-01-17T00:54:43.554Z,92.38
2024-01-17T00:54:54.438Z,92.38
2024-01-17T00:55:05.315Z,92.38
2024-01-17T00:55:16.190Z,92.38
2024-01-17T00:55:27.071Z,92.38
2024-01-17T00:55:37.953Z,92.38
2024-01-17T00:55:48.828Z,92.38
2024-01-17T00:55:59.784Z,92.48
2024-01-17T00:56:10.659Z,92.48
2024-01-17T00:56:21.538Z,92.48
2024-01-17T00:56:32.440Z,92.48
2024-01-17T00:56:43.404Z,92.48
2024-01-17T00:56:54.315Z,92.52
2024-01-17T00:57:05.510Z,92.48
2024-01-17T00:57:15.935Z,92.48
2024-01-17T00:57:26.825Z,92.48
2024-01-17T00:57:37.720Z,92.63
2024-01-17T00:57:48.596Z,92.58
2024-01-17T00:57:59.495Z,92.63
2024-01-17T00:58:10.384Z,92.63
2024-01-17T00:58:21.265Z,92.58
2024-01-17T00:58:32.146Z,92.63
2024-01-17T00:58:43.033Z,92.73
2024-01-17T00:58:53.915Z,92.73
2024-01-17T00:59:04.792Z,92.73
2024-01-17T00:59:15.677Z,92.73
2024-01-17T00:59:26.601Z,92.84
2024-01-17T00:59:37.504Z,92.84
2024-01-17T00:59:48.395Z,92.84
2024-01-17T00:59:59.354Z,92.84
2024-01-17T01:00:10.372Z,92.84
2024-01-17T01:00:20.833Z,92.84
2024-01-17T01:00:31.726Z,92.84
2024-01-17T01:00:44.471Z,92.84
2024-01-17T01:00:53.638Z,92.84
2024-01-17T01:01:04.539Z,92.84
2024-01-17T01:01:15.466Z,92.84
2024-01-17T01:01:26.333Z,92.84
2024-01-17T01:01:37.213Z,92.94
2024-01-17T01:01:48.099Z,92.94
2024-01-17T01:01:58.985Z,92.94
2024-01-17T01:02:09.882Z,92.94
2024-01-17T01:02:20.763Z,93.05
2024-01-17T01:02:31.663Z,93.05
2024-01-17T01:02:42.561Z,93.05
2024-01-17T01:02:53.542Z,93.05
2024-01-17T01:03:04.092Z,93.05
2024-01-17T01:03:15.043Z,93.05
2024-01-17T01:03:25.495Z,93.05
2024-01-17T01:03:36.372Z,93.05
2024-01-17T01:03:47.296Z,93.05
2024-01-17T01:03:58.198Z,93.05
2024-01-17T01:04:09.169Z,92.94
2024-01-17T01:04:20.038Z,92.94
2024-01-17T01:04:30.934Z,92.94
2024-01-17T01:04:41.821Z,92.94
2024-01-17T01:04:52.698Z,92.94
2024-01-17T01:05:03.608Z,92.84
2024-01-17T01:05:14.465Z,92.84
2024-01-17T01:05:25.354Z,92.84
2024-01-17T01:05:36.295Z,92.84
2024-01-17T01:05:47.186Z,92.84
2024-01-17T01:05:58.193Z,92.84
2024-01-17T01:06:08.674Z,92.84
2024-01-17T01:06:19.534Z,92.94
2024-01-17T01:06:30.561Z,92.84
2024-01-17T01:06:41.391Z,92.94
2024-01-17T01:06:52.285Z,92.94
2024-01-17T01:07:03.182Z,92.94
2024-01-17T01:07:14.071Z,92.94
2024-01-17T01:07:24.932Z,92.94
2024-01-17T01:07:35.816Z,92.94
2024-01-17T01:07:46.702Z,93.05
2024-01-17T01:07:57.614Z,93.05
2024-01-17T01:08:08.504Z,93.05
2024-01-17T01:08:19.442Z,93.05
2024-01-17T01:08:30.369Z,93.05
2024-01-17T01:08:41.303Z,93.15
2024-01-17T01:08:52.220Z,93.15
2024-01-17T01:09:03.292Z,93.15
2024-01-17T01:09:13.930Z,93.15
2024-01-17T01:09:24.384Z,93.15
2024-01-17T01:09:35.290Z,93.15
2024-01-17T01:09:46.160Z,93.15
2024-01-17T01:09:57.736Z,93.15
2024-01-17T01:10:07.316Z,93.05
2024-01-17T01:10:18.217Z,93.05
2024-01-17T01:10:29.097Z,93.05
2024-01-17T01:10:40.007Z,92.94
2024-01-17T01:10:50.875Z,92.94
2024-01-17T01:11:01.752Z,92.94
2024-01-17T01:11:12.636Z,92.94
2024-01-17T01:11:23.542Z,92.84
2024-01-17T01:11:34.561Z,92.84
2024-01-17T01:11:45.064Z,92.84
2024-01-17T01:11:55.924Z,92.73
2024-01-17T01:12:06.853Z,92.73
2024-01-17T01:12:17.730Z,92.73
2024-01-17T01:12:28.628Z,92.77
2024-01-17T01:12:39.515Z,92.73
2024-01-17T01:12:50.444Z,92.77
2024-01-17T01:13:01.287Z,92.73
2024-01-17T01:13:12.162Z,92.77
2024-01-17T01:13:23.053Z,92.77
2024-01-17T01:13:33.926Z,92.88
2024-01-17T01:13:44.799Z,92.88
2024-01-17T01:13:55.682Z,92.88
2024-01-17T01:14:06.586Z,92.88
2024-01-17T01:14:17.465Z,92.88
2024-01-17T01:14:28.359Z,92.88
2024-01-17T01:14:39.273Z,92.88
2024-01-17T01:14:50.218Z,92.88
2024-01-17T01:15:01.152Z,92.88
2024-01-17T01:15:12.156Z,92.88
2024-01-17T01:15:22.516Z,92.88
2024-01-17T01:15:33.407Z,92.99
2024-01-17T01:15:44.278Z,92.99
2024-01-17T01:15:55.193Z,92.99
2024-01-17T01:16:06.070Z,92.99
2024-01-17T01:16:16.954Z,92.99
2024-01-17T01:16:27.830Z,93.09
2024-01-17T01:16:38.744Z,93.09
2024-01-17T01:16:49.630Z,93.09
2024-01-17T01:17:00.508Z,93.09
2024-01-17T01:17:11.391Z,93.09
2024-01-17T01:17:22.400Z,93.09
2024-01-17T01:17:32.940Z,93.09
2024-01-17T01:17:43.921Z,93.09
2024-01-17T01:17:54.922Z,92.99
2024-01-17T01:18:05.428Z,92.99
2024-01-17T01:18:16.420Z,92.99
2024-01-17T01:18:26.934Z,92.99
2024-01-17T01:18:37.990Z,92.99
2024-01-17T01:18:48.622Z,92.99
2024-01-17T01:18:59.291Z,92.99
2024-01-17T01:19:09.995Z,92.99
2024-01-17T01:19:20.450Z,92.99
2024-01-17T01:19:31.391Z,92.99
2024-01-17T01:19:42.339Z,92.99
2024-01-17T01:19:53.204Z,92.99
2024-01-17T01:20:04.095Z,92.99
2024-01-17T01:20:14.982Z,92.99
2024-01-17T01:20:25.896Z,92.99
2024-01-17T01:20:36.740Z,92.99
2024-01-17T01:20:47.694Z,92.99
2024-01-17T01:20:58.715Z,92.99
2024-01-17T01:21:09.139Z,92.99
2024-01-17T01:21:20.007Z,92.99
2024-01-17T01:21:30.890Z,92.88
2024-01-17T01:21:41.923Z,92.88
2024-01-17T01:21:52.728Z,92.88
2024-01-17T01:22:03.620Z,92.77
2024-01-17T01:22:14.509Z,92.77
2024-01-17T01:22:25.388Z,92.77
2024-01-17T01:22:36.270Z,92.77
2024-01-17T01:22:47.169Z,92.67
2024-01-17T01:22:58.049Z,92.67
2024-01-17T01:23:08.932Z,92.67
2024-01-17T01:23:19.816Z,92.67
2024-01-17T01:23:30.752Z,92.67
2024-01-17T01:23:41.598Z,92.67
2024-01-17T01:23:52.502Z,92.67
2024-01-17T01:24:03.489Z,92.63
2024-01-17T01:24:13.897Z,92.67
2024-01-17T01:24:24.755Z,92.67
2024-01-17T01:24:35.658Z,92.63
2024-01-17T01:24:46.630Z,92.67
2024-01-17T01:24:57.475Z,92.63
2024-01-17T01:25:08.357Z,92.63
2024-01-17T01:25:19.253Z,92.63
2024-01-17T01:25:30.139Z,92.67
2024-01-17T01:25:41.020Z,92.63
2024-01-17T01:25:51.903Z,92.63
2024-01-17T01:26:02.811Z,92.67
2024-01-17T01:26:13.712Z,92.63
2024-01-17T01:26:24.581Z,92.52
2024-01-17T01:26:35.511Z,92.52
2024-01-17T01:26:46.399Z,92.52
2024-01-17T01:26:57.325Z,92.52
2024-01-17T01:27:08.197Z,92.57
2024-01-17T01:27:19.084Z,92.52
2024-01-17T01:27:29.968Z,92.52
2024-01-17T01:27:40.837Z,92.52
2024-01-17T01:27:51.752Z,92.52
2024-01-17T01:28:02.771Z,92.41
2024-01-17T01:28:13.661Z,92.41
2024-01-17T01:28:24.584Z,92.41
2024-01-17T01:28:35.466Z,92.41
2024-01-17T01:28:46.334Z,92.41
2024-01-17T01:28:57.185Z,92.41
2024-01-17T01:29:08.069Z,92.41
2024-01-17T01:29:18.962Z,92.41
2024-01-17T01:29:29.866Z,92.41
2024-01-17T01:29:40.778Z,92.41
2024-01-17T01:29:51.712Z,92.41
2024-01-17T01:30:02.692Z,92.41
2024-01-17T01:30:13.669Z,92.41
2024-01-17T01:30:24.559Z,92.41
2024-01-17T01:30:35.490Z,92.41
2024-01-17T01:30:46.358Z,92.41
2024-01-17T01:30:57.291Z,92.31
2024-01-17T01:31:08.170Z,92.21
2024-01-17T01:31:19.073Z,92.21
2024-01-17T01:31:29.973Z,92.21
2024-01-17T01:31:40.851Z,92.21
2024-01-17T01:31:51.745Z,92.21
2024-01-17T01:32:02.625Z,92.21
2024-01-17T01:32:13.493Z,92.21
2024-01-17T01:32:24.403Z,92.21
2024-01-17T01:32:35.359Z,92.21
2024-01-17T01:32:46.337Z,92.21
2024-01-17T01:32:57.325Z,92.21
2024-01-17T01:33:08.301Z,92.21
2024-01-17T01:33:18.779Z,92.21
2024-01-17T01:33:29.780Z,92.21
2024-01-17T01:33:40.607Z,92.10
2024-01-17T01:33:51.271Z,92.10
2024-01-17T01:34:01.769Z,92.10
2024-01-17T01:34:13.146Z,92.10
2024-01-17T01:34:22.960Z,92.10
2024-01-17T01:34:33.814Z,92.10
2024-01-17T01:34:44.693Z,92.10
2024-01-17T01:34:55.649Z,92.10
2024-01-17T01:35:06.522Z,92.10
2024-01-17T01:35:17.391Z,92.10
2024-01-17T01:35:28.298Z,92.10
2024-01-17T01:35:39.231Z,92.10
2024-01-17T01:35:50.134Z,92.10
2024-01-17T01:36:01.162Z,92.10
2024-01-17T01:36:11.618Z,91.99
2024-01-17T01:36:22.471Z,91.99
2024-01-17T01:36:33.382Z,91.99
2024-01-17T01:36:44.247Z,91.89
2024-01-17T01:36:55.228Z,91.89
2024-01-17T01:37:06.064Z,91.89
2024-01-17T01:37:16.937Z,91.89
2024-01-17T01:37:27.823Z,91.89
2024-01-17T01:37:38.724Z,91.89
2024-01-17T01:37:49.587Z,91.89
2024-01-17T01:38:00.473Z,91.89
2024-01-17T01:38:11.349Z,91.89
2024-01-17T01:38:22.224Z,91.89
2024-01-17T01:38:33.175Z,91.78
2024-01-17T01:38:44.039Z,91.78
2024-01-17T01:38:55.003Z,91.78
2024-01-17T01:39:05.978Z,91.78
2024-01-17T01:39:16.843Z,91.78
2024-01-17T01:39:27.713Z,91.78
2024-01-17T01:39:38.603Z,91.78
2024-01-17T01:39:49.519Z,91.78
2024-01-17T01:40:00.442Z,91.78
2024-01-17T01:40:11.304Z,91.78
2024-01-17T01:40:22.172Z,91.78
2024-01-17T01:40:33.055Z,91.78
2024-01-17T01:40:43.937Z,91.78
2024-01-17T01:40:54.814Z,91.78
2024-01-17T01:41:05.686Z,91.78
2024-01-17T01:41:16.568Z,91.78
2024-01-17T01:41:27.486Z,91.78
2024-01-17T01:41:38.338Z,91.78
2024-01-17T01:41:49.265Z,91.78
2024-01-17T01:42:00.207Z,91.78
2024-01-17T01:42:11.169Z,91.78
2024-01-17T01:42:22.117Z,91.83
2024-01-17T01:42:32.958Z,91.83
2024-01-17T01:42:43.854Z,91.78
2024-01-17T01:42:54.734Z,91.83
2024-01-17T01:43:05.617Z,91.83
2024-01-17T01:43:16.491Z,91.83
2024-01-17T01:43:27.368Z,91.93
2024-01-17T01:43:38.255Z,91.93
2024-01-17T01:43:49.133Z,92.03
2024-01-17T01:44:00.023Z,92.03
2024-01-17T01:44:10.908Z,92.03
2024-01-17T01:44:21.809Z,92.03
2024-01-17T01:44:32.691Z,92.14
2024-01-17T01:44:43.566Z,92.14
2024-01-17T01:44:54.447Z,92.14
2024-01-17T01:45:05.341Z,92.14
2024-01-17T01:45:16.269Z,92.14
2024-01-17T01:45:27.150Z,92.14
2024-01-17T01:45:38.033Z,92.14
2024-01-17T01:45:48.916Z,92.14
2024-01-17T01:45:59.798Z,92.14
2024-01-17T01:46:10.686Z,92.14
2024-01-17T01:46:21.562Z,92.14
2024-01-17T01:46:32.456Z,92.14
2024-01-17T01:46:43.334Z,92.14
2024-01-17T01:46:54.217Z,92.14
2024-01-17T01:47:05.112Z,92.14
2024-01-17T01:47:16.008Z,92.14
2024-01-17T01:47:26.958Z,92.14
2024-01-17T01:47:37.898Z,92.14
2024-01-17T01:47:48.817Z,92.14
2024-01-17T01:47:59.720Z,92.25
2024-01-17T01:48:10.704Z,92.25
2024-01-17T01:48:21.698Z,92.25
2024-01-17T01:48:32.295Z,92.25
2024-01-17T01:48:42.910Z,92.25
2024-01-17T01:48:53.522Z,92.35
2024-01-17T01:49:04.089Z,92.35
2024-01-17T01:49:14.678Z,92.35
2024-01-17T01:49:25.140Z,92.35
2024-01-17T01:49:36.065Z,92.35
2024-01-17T01:49:46.997Z,92.35
2024-01-17T01:49:57.833Z,92.35
2024-01-17T01:50:08.702Z,92.35
2024-01-17T01:50:19.598Z,92.35
2024-01-17T01:50:30.479Z,92.35
2024-01-17T01:50:41.399Z,92.35
2024-01-17T01:50:52.311Z,92.35
2024-01-17T01:51:03.289Z,92.35
2024-01-17T01:51:14.149Z,92.35
2024-01-17T01:51:25.051Z,92.35
2024-01-17T01:51:35.909Z,92.35
2024-01-17T01:51:46.789Z,92.46
2024-01-17T01:51:57.788Z,92.46
2024-01-17T01:52:08.630Z,92.46
2024-01-17T01:52:19.534Z,92.46
2024-01-17T01:52:30.423Z,92.46
2024-01-17T01:52:41.327Z,92.46
2024-01-17T01:52:52.224Z,92.46
2024-01-17T01:53:03.107Z,92.46
2024-01-17T01:53:13.994Z,92.46
2024-01-17T01:53:24.933Z,92.57
2024-01-17T01:53:35.797Z,92.57
2024-01-17T01:53:46.780Z,92.57
2024-01-17T01:53:57.729Z,92.57
2024-01-17T01:54:08.654Z,92.57
2024-01-17T01:54:19.544Z,92.57
2024-01-17T01:54:30.418Z,92.46
2024-01-17T01:54:41.311Z,92.46
2024-01-17T01:54:52.184Z,92.46
2024-01-17T01:55:03.090Z,92.46
2024-01-17T01:55:13.940Z,92.46
2024-01-17T01:55:24.828Z,92.46
2024-01-17T01:55:35.686Z,92.46
2024-01-17T01:55:46.574Z,92.46
2024-01-17T01:55:57.445Z,92.46
2024-01-17T01:56:08.324Z,92.46
2024-01-17T01:56:19.212Z,92.50
2024-01-17T01:56:30.116Z,92.46
2024-01-17T01:56:41.031Z,92.46
2024-01-17T01:56:51.891Z,92.46
2024-01-17T01:57:02.887Z,92.46
2024-01-17T01:57:13.782Z,92.46
2024-01-17T01:57:24.632Z,92.46
2024-01-17T01:57:35.517Z,92.46
2024-01-17T01:57:46.409Z,92.35
2024-01-17T01:57:57.307Z,92.35
2024-01-17T01:58:08.189Z,92.46
2024-01-17T01:58:19.079Z,92.46
2024-01-17T01:58:29.960Z,92.46
2024-01-17T01:58:40.855Z,92.50
2024-01-17T01:58:51.729Z,92.46
2024-01-17T01:59:02.623Z,92.46
2024-01-17T01:59:13.507Z,92.46
2024-01-17T01:59:24.458Z,92.46
2024-01-17T01:59:35.382Z,92.46
2024-01-17T01:59:46.297Z,92.46
2024-01-17T01:59:57.172Z,92.46
2024-01-17T02:00:08.072Z,92.46
2024-01-17T02:00:18.984Z,92.46
2024-01-17T02:00:29.881Z,92.46
2024-01-17T02:00:40.769Z,92.46
2024-01-17T02:00:51.645Z,92.46
2024-01-17T02:01:02.578Z,92.46
2024-01-17T02:01:13.443Z,92.46
2024-01-17T02:01:24.337Z,92.46
2024-01-17T02:01:35.215Z,92.46
2024-01-17T02:01:46.101Z,92.46
2024-01-17T02:01:56.980Z,92.46
2024-01-17T02:02:07.883Z,92.46
2024-01-17T02:02:18.753Z,92.46
2024-01-17T02:02:29.702Z,92.46
2024-01-17T02:02:40.574Z,92.46
2024-01-17T02:02:51.616Z,92.46
2024-01-17T02:03:02.120Z,92.46
2024-01-17T02:03:13.036Z,92.46
2024-01-17T02:03:23.937Z,92.46
2024-01-17T02:03:34.852Z,92.46
2024-01-17T02:03:45.744Z,92.46
2024-01-17T02:03:56.613Z,92.50
2024-01-17T02:04:07.524Z,92.60
2024-01-17T02:04:18.547Z,92.46
2024-01-17T02:04:29.441Z,92.46
2024-01-17T02:04:40.339Z,92.57
2024-01-17T02:04:51.236Z,92.60
2024-01-17T02:05:02.173Z,92.60
2024-01-17T02:05:13.029Z,92.60
2024-01-17T02:05:24.662Z,92.57
2024-01-17T02:05:34.726Z,92.57
2024-01-17T02:05:45.679Z,92.57
2024-01-17T02:05:56.612Z,92.57
2024-01-17T02:06:07.515Z,92.67
2024-01-17T02:06:18.412Z,92.67
2024-01-17T02:06:29.342Z,92.67
2024-01-17T02:06:40.189Z,92.71
2024-01-17T02:06:51.084Z,92.71
2024-01-17T02:07:01.990Z,92.67
2024-01-17T02:07:12.855Z,92.67
2024-01-17T02:07:23.723Z,92.77
2024-01-17T02:07:34.648Z,92.77
2024-01-17T02:07:45.494Z,92.77
2024-01-17T02:07:56.380Z,92.77
2024-01-17T02:08:07.278Z,92.77
2024-01-17T02:08:18.158Z,92.77
2024-01-17T02:08:29.067Z,92.77
2024-01-17T02:08:39.964Z,92.77
2024-01-17T02:08:50.867Z,92.77
2024-01-17T02:09:01.896Z,92.77
2024-01-17T02:09:12.303Z,92.67
2024-01-17T02:09:23.149Z,92.67
2024-01-17T02:09:34.052Z,92.67
2024-01-17T02:09:44.920Z,92.67
2024-01-17T02:09:55.799Z,92.57
2024-01-17T02:10:06.705Z,92.57
2024-01-17T02:10:17.577Z,92.57
2024-01-17T02:10:28.466Z,92.57
2024-01-17T02:10:39.343Z,92.57
2024-01-17T02:10:50.231Z,92.57
2024-01-17T02:11:01.114Z,92.57
2024-01-17T02:11:11.982Z,92.57
2024-01-17T02:11:22.867Z,92.57
2024-01-17T02:11:33.844Z,92.57
2024-01-17T02:11:44.717Z,92.57
2024-01-17T02:11:55.601Z,92.57
2024-01-17T02:12:06.710Z,92.67
2024-01-17T02:12:17.045Z,92.67
2024-01-17T02:12:27.931Z,92.67
2024-01-17T02:12:38.833Z,92.67
2024-01-17T02:12:49.718Z,92.67
2024-01-17T02:13:00.590Z,92.67
2024-01-17T02:13:11.477Z,92.77
2024-01-17T02:13:22.342Z,92.77
2024-01-17T02:13:33.227Z,92.77
2024-01-17T02:13:44.104Z,92.77
2024-01-17T02:13:55.005Z,92.77
2024-01-17T02:14:05.918Z,92.77
2024-01-17T02:14:16.787Z,92.77
2024-01-17T02:14:27.695Z,92.77
2024-01-17T02:14:38.586Z,92.77
2024-01-17T02:14:49.478Z,92.77
2024-01-17T02:15:00.564Z,92.77
2024-01-17T02:15:10.986Z,92.77
2024-01-17T02:15:21.852Z,92.67
2024-01-17T02:15:32.752Z,92.67
2024-01-17T02:15:43.657Z,92.67
2024-01-17T02:15:54.516Z,92.77
2024-01-17T02:16:05.418Z,92.71
2024-01-17T02:16:16.306Z,92.82
2024-01-17T02:16:27.194Z,92.71
2024-01-17T02:16:38.072Z,92.82
2024-01-17T02:16:48.947Z,92.77
2024-01-17T02:16:59.833Z,92.71
2024-01-17T02:17:10.720Z,92.82
2024-01-17T02:17:21.618Z,92.82
2024-01-17T02:17:32.583Z,92.77
2024-01-17T02:17:43.519Z,92.82
2024-01-17T02:17:54.457Z,92.82
2024-01-17T02:18:05.351Z,92.82
2024-01-17T02:18:16.329Z,92.82
2024-01-17T02:18:26.815Z,92.88
2024-01-17T02:18:37.522Z,92.92
2024-01-17T02:18:48.034Z,92.82
2024-01-17T02:18:59.042Z,92.88
2024-01-17T02:19:09.891Z,92.88
2024-01-17T02:19:20.794Z,92.88
2024-01-17T02:19:31.676Z,92.88
2024-01-17T02:19:42.559Z,92.88
2024-01-17T02:19:53.523Z,92.88